createdAt,value
2018-06-18T00:02:11.355Z,23.00
2018-06-18T00:04:45.012Z,22.20
2018-06-18T00:07:18.161Z,22.20
2018-06-18T00:09:51.509Z,22.00
2018-06-18T00:12:23.246Z,24.20
2018-06-18T00:14:56.475Z,21.20
2018-06-18T00:17:29.412Z,22.20
2018-06-18T00:20:02.586Z,24.00
2018-06-18T00:22:35.331Z,23.20
2018-06-18T00:25:08.124Z,23.20
2018-06-18T00:27:42.024Z,23.20
2018-06-18T00:30:15.259Z,23.00
2018-06-18T00:32:47.910Z,22.20
2018-06-18T00:35:21.336Z,24.00
2018-06-18T00:37:54.268Z,22.60
2018-06-18T00:40:26.533Z,23.20
2018-06-18T00:42:59.282Z,25.00
2018-06-18T00:45:32.687Z,23.40
2018-06-18T00:48:05.020Z,28.00
2018-06-18T00:50:37.992Z,28.40
2018-06-18T00:53:11.458Z,28.40
2018-06-18T00:55:53.418Z,28.40
2018-06-18T00:58:25.651Z,30.60
2018-06-18T01:00:57.830Z,29.60
2018-06-18T01:03:30.654Z,30.80
2018-06-18T01:06:04.218Z,29.40
2018-06-18T01:08:37.307Z,28.60
2018-06-18T01:11:10.584Z,29.80
2018-06-18T01:13:43.942Z,27.80
2018-06-18T01:16:16.564Z,28.80
2018-06-18T01:18:49.308Z,29.80
2018-06-18T01:21:22.760Z,27.80
2018-06-18T01:24:00.397Z,27.40
2018-06-18T01:26:33.566Z,30.20
2018-06-18T01:29:05.922Z,29.80
2018-06-18T01:31:38.875Z,30.20
2018-06-18T01:34:28.528Z,29.40
2018-06-18T01:37:01.720Z,29.60
2018-06-18T01:39:34.552Z,27.20
2018-06-18T01:42:07.678Z,30.80
2018-06-18T01:44:40.132Z,30.80
2018-06-18T01:47:13.399Z,30.60
2018-06-18T01:49:46.594Z,32.60
2018-06-18T01:52:19.924Z,33.80
2018-06-18T01:54:52.419Z,29.80
2018-06-18T01:57:24.525Z,35.60
2018-06-18T01:59:56.562Z,37.40
2018-06-18T02:02:30.292Z,33.20
2018-06-18T02:05:02.856Z,24.20
2018-06-18T02:07:36.841Z,31.40
2018-06-18T02:10:09.071Z,35.20
2018-06-18T02:12:43.144Z,34.00
2018-06-18T02:15:16.206Z,30.00
2018-06-18T02:17:49.442Z,34.40
2018-06-18T02:20:22.185Z,35.20
2018-06-18T02:22:55.417Z,34.00
2018-06-18T02:25:28.629Z,34.80
2018-06-18T02:28:06.159Z,34.00
2018-06-18T02:30:43.376Z,37.00
2018-06-18T02:33:20.406Z,33.80
2018-06-18T02:35:57.004Z,35.40
2018-06-18T02:38:34.401Z,39.40
2018-06-18T02:41:07.680Z,31.40
2018-06-18T02:43:41.199Z,38.20
2018-06-18T02:46:14.536Z,35.00
2018-06-18T02:48:48.333Z,34.80
2018-06-18T02:51:21.011Z,35.60
2018-06-18T02:53:54.533Z,33.40
2018-06-18T02:56:40.614Z,34.00
2018-06-18T02:59:12.875Z,34.20
2018-06-18T03:01:45.606Z,32.20
2018-06-18T03:04:19.332Z,28.40
2018-06-18T03:06:52.514Z,33.20
2018-06-18T03:09:25.859Z,32.20
2018-06-18T03:11:58.558Z,32.60
2018-06-18T03:14:31.289Z,32.20
2018-06-18T03:17:04.457Z,31.20
2018-06-18T03:19:41.766Z,30.60
2018-06-18T03:22:18.817Z,29.80
2018-06-18T03:24:55.940Z,28.40
2018-06-18T03:27:32.913Z,30.00
2018-06-18T03:30:05.691Z,27.00
2018-06-18T03:32:38.886Z,28.00
2018-06-18T03:35:12.367Z,27.40
2018-06-18T03:37:45.615Z,26.20
2018-06-18T03:40:18.226Z,26.00
2018-06-18T03:42:51.262Z,25.60
2018-06-18T03:45:29.167Z,26.40
2018-06-18T03:48:08.326Z,26.20
2018-06-18T03:50:42.028Z,26.40
2018-06-18T03:53:14.834Z,28.00
2018-06-18T03:55:54.828Z,28.00
2018-06-18T03:58:27.856Z,26.40
2018-06-18T04:02:15.526Z,27.60
2018-06-18T04:04:57.569Z,27.20
2018-06-18T04:08:06.100Z,27.40
2018-06-18T04:10:43.533Z,24.40
2018-06-18T04:13:18.722Z,26.60
2018-06-18T04:15:51.740Z,26.00
2018-06-18T04:18:25.504Z,25.00
2018-06-18T04:20:58.632Z,25.80
2018-06-18T04:23:31.636Z,24.00
2018-06-18T04:26:05.183Z,26.00
2018-06-18T04:28:38.736Z,25.00
2018-06-18T04:31:11.921Z,23.40
2018-06-18T04:33:51.265Z,25.60
2018-06-18T04:36:24.212Z,20.40
2018-06-18T04:38:56.694Z,23.00
2018-06-18T04:41:29.230Z,23.00
2018-06-18T04:44:06.677Z,22.80
2018-06-18T04:46:44.513Z,21.20
2018-06-18T04:49:22.502Z,22.40
2018-06-18T04:51:55.949Z,22.80
2018-06-18T04:54:28.950Z,22.60
2018-06-18T04:57:02.298Z,20.20
2018-06-18T04:59:36.545Z,22.00
2018-06-18T05:02:09.025Z,20.80
2018-06-18T05:04:42.543Z,22.20
2018-06-18T05:07:15.687Z,21.00
2018-06-18T05:10:05.682Z,22.00
2018-06-18T05:12:38.369Z,21.60
2018-06-18T05:15:13.430Z,21.00
2018-06-18T05:17:46.276Z,19.40
2018-06-18T05:20:19.569Z,22.00
2018-06-18T05:22:52.762Z,20.00
2018-06-18T05:25:25.171Z,20.20
2018-06-18T05:27:57.301Z,20.00
2018-06-18T05:30:32.446Z,19.00
2018-06-18T05:33:06.585Z,19.20
2018-06-18T05:35:44.773Z,16.60
2018-06-18T05:38:22.195Z,15.80
2018-06-18T05:40:55.144Z,15.80
2018-06-18T05:43:27.733Z,17.20
2018-06-18T05:46:00.455Z,19.80
2018-06-18T05:48:33.144Z,17.20
2018-06-18T05:51:05.965Z,19.20
2018-06-18T05:53:39.108Z,18.60
2018-06-18T05:56:12.670Z,18.00
2018-06-18T05:58:45.353Z,18.40
2018-06-18T06:01:18.207Z,17.80
2018-06-18T06:03:50.748Z,19.00
2018-06-18T06:06:24.047Z,14.80
2018-06-18T06:08:56.392Z,20.60
2018-06-18T06:11:29.204Z,16.80
2018-06-18T06:14:01.684Z,18.40
2018-06-18T06:16:34.410Z,18.40
2018-06-18T06:19:07.922Z,19.00
2018-06-18T06:21:41.773Z,20.00
2018-06-18T06:24:15.049Z,19.00
2018-06-18T06:26:47.404Z,18.20
2018-06-18T06:29:20.693Z,18.40
2018-06-18T06:31:53.885Z,17.20
2018-06-18T06:34:26.643Z,19.00
2018-06-18T06:36:59.561Z,16.20
2018-06-18T06:39:32.479Z,19.20
2018-06-18T06:42:09.095Z,19.60
2018-06-18T06:44:42.017Z,21.00
2018-06-18T06:47:14.870Z,19.40
2018-06-18T06:49:48.043Z,19.20
2018-06-18T06:52:20.900Z,18.60
2018-06-18T06:54:53.165Z,16.20
2018-06-18T06:57:26.056Z,20.20
2018-06-18T06:59:58.061Z,16.00
2018-06-18T07:02:31.127Z,19.20
2018-06-18T07:05:04.427Z,17.20
2018-06-18T07:07:37.319Z,16.00
2018-06-18T07:10:10.617Z,14.80
2018-06-18T07:12:43.828Z,18.20
2018-06-18T07:15:16.820Z,17.60
2018-06-18T07:17:49.024Z,19.40
2018-06-18T07:20:22.025Z,18.80
2018-06-18T07:22:55.410Z,18.20
2018-06-18T07:25:28.789Z,19.00
2018-06-18T07:28:04.437Z,19.20
2018-06-18T07:30:37.971Z,19.20
2018-06-18T07:33:10.711Z,18.60
2018-06-18T07:35:43.661Z,18.60
2018-06-18T07:38:16.635Z,17.20
2018-06-18T07:40:49.987Z,20.00
2018-06-18T07:43:22.869Z,19.00
2018-06-18T07:45:55.473Z,19.20
2018-06-18T07:48:28.558Z,18.00
2018-06-18T07:51:01.039Z,18.40
2018-06-18T07:53:33.739Z,17.20
2018-06-18T07:56:09.330Z,17.80
2018-06-18T07:58:42.547Z,20.00
2018-06-18T08:01:14.999Z,18.00
2018-06-18T08:03:48.026Z,19.20
2018-06-18T08:06:20.739Z,19.20
2018-06-18T08:08:53.771Z,19.00
2018-06-18T08:11:27.139Z,18.80
2018-06-18T08:13:59.733Z,20.00
2018-06-18T08:16:32.056Z,21.00
2018-06-18T08:19:05.945Z,22.00
2018-06-18T08:21:39.410Z,19.20
2018-06-18T08:24:12.422Z,17.00
2018-06-18T08:26:45.453Z,19.20
2018-06-18T08:29:18.626Z,15.40
2018-06-18T08:31:52.290Z,15.00
2018-06-18T08:34:25.688Z,16.60
2018-06-18T08:36:59.060Z,17.20
2018-06-18T08:39:31.643Z,15.40
2018-06-18T08:42:04.473Z,13.00
2018-06-18T08:44:36.750Z,12.80
2018-06-18T08:47:09.506Z,13.80
2018-06-18T08:49:46.670Z,12.80
2018-06-18T08:52:23.288Z,14.60
2018-06-18T08:55:01.315Z,11.80
2018-06-18T08:57:39.054Z,11.40
2018-06-18T09:00:16.595Z,10.40
2018-06-18T09:02:54.370Z,12.00
2018-06-18T09:05:31.540Z,10.60
2018-06-18T09:08:07.810Z,11.00
2018-06-18T09:10:41.017Z,9.80
2018-06-18T09:13:14.314Z,11.20
2018-06-18T09:15:47.252Z,11.00
2018-06-18T09:18:20.643Z,10.60
2018-06-18T09:20:53.335Z,11.20
2018-06-18T09:23:25.873Z,11.20
2018-06-18T09:25:59.844Z,11.00
2018-06-18T09:28:33.226Z,10.20
2018-06-18T09:31:06.742Z,10.60
2018-06-18T09:33:42.594Z,11.00
2018-06-18T09:36:15.742Z,12.00
2018-06-18T09:38:48.812Z,13.60
2018-06-18T09:41:22.703Z,13.00
2018-06-18T09:43:55.954Z,12.80
2018-06-18T09:46:29.452Z,8.80
2018-06-18T09:49:06.756Z,9.80
2018-06-18T09:51:44.454Z,10.00
2018-06-18T09:54:21.584Z,8.40
2018-06-18T09:56:59.672Z,9.80
2018-06-18T09:59:43.010Z,10.00
2018-06-18T10:02:16.787Z,11.00
2018-06-18T10:04:48.953Z,10.60
2018-06-18T10:07:21.589Z,8.80
2018-06-18T10:09:54.371Z,9.80
2018-06-18T10:12:27.507Z,10.60
2018-06-18T10:15:00.792Z,10.20
2018-06-18T10:18:58.317Z,9.40
2018-06-18T10:21:32.037Z,10.40
2018-06-18T10:24:04.359Z,12.60
2018-06-18T10:26:38.325Z,12.40
2018-06-18T10:29:12.692Z,13.40
2018-06-18T10:31:46.367Z,15.40
2018-06-18T10:34:24.707Z,15.40
2018-06-18T10:37:03.666Z,16.80
2018-06-18T10:39:42.244Z,16.40
2018-06-18T10:42:20.267Z,15.60
2018-06-18T10:44:54.057Z,15.00
2018-06-18T10:47:27.944Z,14.80
2018-06-18T10:50:01.713Z,16.00
2018-06-18T10:52:34.713Z,16.00
2018-06-18T10:55:07.703Z,13.40
2018-06-18T10:57:39.876Z,14.40
2018-06-18T11:00:15.066Z,13.40
2018-06-18T11:02:48.256Z,12.20
2018-06-18T11:05:21.479Z,12.00
2018-06-18T11:07:54.557Z,13.80
2018-06-18T11:10:27.818Z,15.60
2018-06-18T11:12:59.838Z,17.20
2018-06-18T11:15:31.874Z,16.20
2018-06-18T11:18:09.357Z,15.80
2018-06-18T11:20:47.765Z,17.20
2018-06-18T11:23:24.522Z,16.80
2018-06-18T11:26:01.752Z,16.40
2018-06-18T11:28:35.174Z,16.20
2018-06-18T11:31:07.322Z,16.00
2018-06-18T11:33:40.560Z,19.00
2018-06-18T11:36:14.324Z,15.80
2018-06-18T11:38:46.635Z,16.80
2018-06-18T11:41:18.996Z,13.40
2018-06-18T11:43:52.389Z,15.20
2018-06-18T11:46:24.936Z,16.60
2018-06-18T11:48:57.819Z,15.00
2018-06-18T11:58:35.632Z,16.00
2018-06-18T12:01:12.989Z,12.80
2018-06-18T12:03:50.657Z,13.60
2018-06-18T12:06:27.531Z,14.40
2018-06-18T12:09:05.283Z,14.20
2018-06-18T12:11:39.975Z,13.20
2018-06-18T12:14:13.103Z,13.80
2018-06-18T12:16:45.956Z,12.60
2018-06-18T12:19:18.120Z,12.60
2018-06-18T12:21:49.741Z,14.20
2018-06-18T12:24:23.390Z,13.20
2018-06-18T12:26:57.318Z,13.20
2018-06-18T12:29:30.863Z,12.80
2018-06-18T12:32:03.007Z,15.80
2018-06-18T12:34:35.912Z,14.80
2018-06-18T12:37:08.815Z,14.40
2018-06-18T12:39:41.848Z,15.60
2018-06-18T12:42:14.407Z,14.60
2018-06-18T12:44:51.892Z,14.00
2018-06-18T12:47:29.337Z,14.60
2018-06-18T12:50:06.397Z,18.00
2018-06-18T12:52:43.310Z,15.00
2018-06-18T12:55:21.142Z,12.80
2018-06-18T12:57:53.763Z,15.40
2018-06-18T13:00:26.331Z,12.40
2018-06-18T13:03:06.093Z,13.60
2018-06-18T13:05:38.808Z,13.00
2018-06-18T13:08:11.579Z,13.20
2018-06-18T13:10:44.208Z,12.40
2018-06-18T13:13:16.567Z,12.60
2018-06-18T13:15:49.438Z,10.60
2018-06-18T13:18:21.776Z,14.20
2018-06-18T13:20:54.354Z,11.40
2018-06-18T13:23:26.662Z,12.00
2018-06-18T13:25:59.707Z,10.80
2018-06-18T13:28:32.899Z,12.20
2018-06-18T13:31:06.054Z,12.20
2018-06-18T13:33:38.873Z,13.60
2018-06-18T13:36:11.706Z,11.60
2018-06-18T13:38:49.181Z,14.20
2018-06-18T13:41:26.698Z,11.60
2018-06-18T13:44:03.570Z,12.40
2018-06-18T13:46:40.981Z,13.00
2018-06-18T13:49:13.318Z,12.60
2018-06-18T13:51:46.490Z,15.00
2018-06-18T13:54:19.793Z,13.40
2018-06-18T13:56:52.860Z,13.40
2018-06-18T13:59:25.744Z,12.00
2018-06-18T14:01:58.765Z,12.60
2018-06-18T14:04:32.020Z,14.80
2018-06-18T14:07:05.454Z,14.60
2018-06-18T14:09:37.835Z,16.60
2018-06-18T14:12:11.118Z,15.80
2018-06-18T14:14:44.292Z,18.40
2018-06-18T14:17:17.685Z,18.20
2018-06-18T14:19:55.208Z,18.60
2018-06-18T14:22:28.256Z,19.80
2018-06-18T14:25:00.811Z,18.00
2018-06-18T14:27:34.089Z,20.00
2018-06-18T14:30:12.029Z,19.00
2018-06-18T14:32:49.418Z,21.00
2018-06-18T14:35:26.248Z,19.00
2018-06-18T14:38:03.488Z,18.60
2018-06-18T14:40:36.511Z,18.20
2018-06-18T14:43:08.882Z,20.00
2018-06-18T14:45:41.605Z,20.00
2018-06-18T14:48:15.548Z,18.80
2018-06-18T14:50:49.310Z,19.00
2018-06-18T14:53:21.700Z,18.00
2018-06-18T14:56:00.888Z,16.80
2018-06-18T14:58:33.485Z,19.60
2018-06-18T15:01:06.187Z,18.40
2018-06-18T15:03:39.680Z,19.40
2018-06-18T15:06:13.219Z,19.20
2018-06-18T15:08:46.145Z,18.40
2018-06-18T15:11:18.562Z,17.40
2018-06-18T15:13:52.305Z,16.80
2018-06-18T15:16:31.303Z,18.40
2018-06-18T15:19:04.453Z,18.60
2018-06-18T15:21:39.641Z,19.20
2018-06-18T15:24:16.741Z,22.00
2018-06-18T15:26:49.794Z,20.60
2018-06-18T15:29:23.158Z,22.00
2018-06-18T15:31:56.794Z,21.40
2018-06-18T15:34:29.652Z,21.60
2018-06-18T15:37:02.747Z,23.00
2018-06-18T15:39:36.314Z,23.80
2018-06-18T15:42:09.000Z,25.00
2018-06-18T15:44:42.360Z,22.00
2018-06-18T15:47:14.969Z,22.40
2018-06-18T15:49:47.481Z,22.80
2018-06-18T15:52:20.571Z,22.60
2018-06-18T15:54:53.252Z,23.40
2018-06-18T15:57:26.761Z,21.20
2018-06-18T15:59:59.353Z,22.80
2018-06-18T16:02:31.709Z,24.00
2018-06-18T16:05:04.976Z,23.20
2018-06-18T16:07:38.754Z,22.20
2018-06-18T16:10:11.310Z,23.20
2018-06-18T16:12:44.175Z,24.20
2018-06-18T16:15:17.585Z,24.80
2018-06-18T16:17:50.207Z,22.60
2018-06-18T16:20:22.947Z,24.20
2018-06-18T16:22:55.898Z,25.60
2018-06-18T16:25:29.218Z,21.40
2018-06-18T16:28:02.178Z,23.60
2018-06-18T16:30:36.378Z,23.20
2018-06-18T16:33:08.292Z,22.60
2018-06-18T16:35:41.247Z,21.40
2018-06-18T16:38:13.994Z,23.00
2018-06-18T16:40:47.644Z,23.00
2018-06-18T16:43:20.613Z,22.80
2018-06-18T16:45:53.062Z,21.40
2018-06-18T16:48:26.075Z,17.40
2018-06-18T16:50:59.112Z,19.60
2018-06-18T16:53:31.908Z,19.20
2018-06-18T16:56:04.136Z,19.00
2018-06-18T16:58:36.638Z,20.00
2018-06-18T17:01:09.071Z,20.00
2018-06-18T17:03:42.056Z,18.80
2018-06-18T17:06:15.047Z,20.00
2018-06-18T17:08:48.238Z,20.00
2018-06-18T17:11:21.962Z,17.20
2018-06-18T17:13:55.109Z,16.80
2018-06-18T17:16:27.700Z,16.80
2018-06-18T17:19:00.615Z,15.20
2018-06-18T17:21:33.349Z,14.80
2018-06-18T17:24:06.099Z,16.60
2018-06-18T17:26:39.316Z,14.60
2018-06-18T17:29:12.621Z,16.40
2018-06-18T17:31:45.284Z,14.40
2018-06-18T17:34:18.189Z,14.40
2018-06-18T17:36:50.679Z,12.60
2018-06-18T17:39:23.222Z,14.60
2018-06-18T17:41:56.221Z,14.00
2018-06-18T17:44:29.536Z,14.20
2018-06-18T17:47:02.334Z,12.60
2018-06-18T17:49:35.553Z,14.60
2018-06-18T17:52:08.643Z,14.60
2018-06-18T17:54:41.653Z,14.20
2018-06-18T17:57:14.912Z,12.20
2018-06-18T17:59:47.285Z,15.60
2018-06-18T18:02:19.713Z,13.00
2018-06-18T18:04:55.858Z,13.20
2018-06-18T18:07:29.719Z,14.60
2018-06-18T18:10:02.520Z,13.00
2018-06-18T18:12:35.264Z,13.40
2018-06-18T18:15:07.992Z,10.80
2018-06-18T18:17:40.066Z,14.60
2018-06-18T18:20:13.320Z,13.00
2018-06-18T18:22:45.662Z,11.20
2018-06-18T18:25:18.625Z,12.20
2018-06-18T18:27:51.713Z,11.00
2018-06-18T18:30:24.852Z,12.80
2018-06-18T18:32:57.631Z,13.00
2018-06-18T18:35:30.689Z,12.20
2018-06-18T18:38:03.576Z,13.40
2018-06-18T18:40:37.260Z,14.00
2018-06-18T18:43:10.289Z,14.00
2018-06-18T18:45:43.485Z,11.40
2018-06-18T18:48:15.989Z,13.00
2018-06-18T18:50:48.521Z,13.40
2018-06-18T18:53:20.879Z,12.60
2018-06-18T18:56:05.347Z,12.80
2018-06-18T18:59:43.239Z,14.60
2018-06-18T19:02:16.503Z,13.60
2018-06-18T19:04:57.594Z,13.20
2018-06-18T19:07:41.731Z,13.40
2018-06-18T19:10:31.359Z,12.60
2018-06-18T19:13:05.639Z,12.40
2018-06-18T19:15:38.790Z,14.20
2018-06-18T19:18:11.876Z,13.00
2018-06-18T19:20:46.978Z,14.00
2018-06-18T19:23:19.951Z,12.00
2018-06-18T19:25:52.583Z,12.20
2018-06-18T19:28:24.743Z,13.40
2018-06-18T19:31:02.089Z,14.00
2018-06-18T19:33:42.547Z,11.20
2018-06-18T19:36:15.580Z,12.80
2018-06-18T19:38:47.786Z,13.80
2018-06-18T19:41:21.028Z,14.20
2018-06-18T19:43:54.131Z,14.40
2018-06-18T19:46:34.704Z,11.80
2018-06-18T19:49:13.455Z,14.60
2018-06-18T19:51:46.110Z,11.80
2018-06-18T20:01:24.009Z,13.00
2018-06-18T20:03:56.449Z,12.00
2018-06-18T20:06:29.238Z,10.80
2018-06-18T20:09:02.501Z,12.60
2018-06-18T20:11:34.621Z,12.00
2018-06-18T20:14:06.636Z,11.60
2018-06-18T20:16:39.818Z,11.20
2018-06-18T20:19:12.940Z,12.00
2018-06-18T20:21:45.878Z,13.40
2018-06-18T20:31:18.433Z,12.40
2018-06-18T20:33:54.778Z,13.60
2018-06-18T20:36:28.516Z,12.20
2018-06-18T20:39:00.872Z,12.80
2018-06-18T20:41:33.228Z,13.00
2018-06-18T20:44:13.686Z,11.20
2018-06-18T20:46:46.469Z,12.00
2018-06-18T20:49:18.674Z,12.60
2018-06-18T20:51:52.045Z,14.00
2018-06-18T20:54:24.740Z,13.00
2018-06-18T20:56:57.947Z,12.60
2018-06-18T20:59:30.725Z,14.20
2018-06-18T21:02:02.974Z,14.60
2018-06-18T21:04:35.328Z,9.80
2018-06-18T21:07:08.130Z,13.00
2018-06-18T21:09:40.226Z,13.20
2018-06-18T21:12:13.470Z,13.40
2018-06-18T21:14:45.998Z,14.20
2018-06-18T21:17:18.548Z,13.40
2018-06-18T21:19:50.783Z,12.40
2018-06-18T21:22:23.581Z,14.80
2018-06-18T21:24:55.541Z,13.00
2018-06-18T21:27:28.493Z,12.80
2018-06-18T21:30:00.902Z,13.80
2018-06-18T21:32:32.933Z,13.60
2018-06-18T21:35:06.396Z,15.20
2018-06-18T21:37:38.713Z,13.40
2018-06-18T21:40:10.947Z,16.20
2018-06-18T21:42:43.408Z,15.40
2018-06-18T21:45:20.581Z,14.60
2018-06-18T21:47:53.954Z,15.00
2018-06-18T21:50:26.355Z,15.00
2018-06-18T21:52:59.707Z,16.00
2018-06-18T21:55:31.870Z,13.60
2018-06-18T21:58:04.360Z,14.00
2018-06-18T22:00:40.136Z,16.20
2018-06-18T22:03:12.962Z,14.20
2018-06-18T22:05:45.312Z,14.00
2018-06-18T22:08:19.481Z,16.80
2018-06-18T22:10:52.151Z,14.60
2018-06-18T22:13:24.901Z,15.60
2018-06-18T22:15:57.601Z,14.40
2018-06-18T22:18:30.459Z,14.00
2018-06-18T22:21:03.415Z,14.60
2018-06-18T22:23:36.568Z,14.40
2018-06-18T22:26:09.733Z,12.80
2018-06-18T22:28:43.974Z,15.80
2018-06-18T22:31:16.870Z,14.00
2018-06-18T22:33:49.005Z,14.00
2018-06-18T22:36:22.385Z,17.80
2018-06-18T22:38:54.836Z,12.60
2018-06-18T22:41:27.037Z,14.80
2018-06-18T22:43:59.492Z,14.00
2018-06-18T22:46:31.942Z,14.60
2018-06-18T22:49:04.619Z,14.00
2018-06-18T22:51:36.730Z,16.00
2018-06-18T22:54:09.133Z,15.60
2018-06-18T22:56:41.931Z,12.80
2018-06-18T22:59:15.297Z,14.60
2018-06-18T23:01:47.055Z,14.60
2018-06-18T23:04:20.020Z,14.80
2018-06-18T23:06:52.004Z,14.60
2018-06-18T23:09:25.189Z,15.80
2018-06-18T23:11:58.272Z,15.00
2018-06-18T23:14:30.897Z,13.00
2018-06-18T23:17:03.045Z,15.00
2018-06-18T23:19:35.866Z,15.80
2018-06-18T23:22:08.172Z,18.60
2018-06-18T23:24:40.822Z,16.20
2018-06-18T23:27:13.802Z,18.60
2018-06-18T23:29:46.628Z,18.20
2018-06-18T23:32:19.869Z,18.20
2018-06-18T23:34:52.686Z,14.60
2018-06-18T23:37:24.843Z,16.80
2018-06-18T23:39:57.086Z,17.20
2018-06-18T23:42:29.382Z,17.00
2018-06-18T23:45:01.897Z,16.60
2018-06-18T23:47:34.287Z,16.40
2018-06-18T23:50:06.881Z,14.20
2018-06-18T23:52:39.475Z,17.60
2018-06-18T23:55:12.410Z,17.60
2018-06-18T23:57:44.990Z,18.40
